Time;durP1;ratioP1;P1;durP2;ratioP2;P2;SDS_P1;SDS_P2;PMS_P1;PMS_P2;Temp;Humidity;BMP_temperature;BMP_pressure;BME280_temperature;BME280_humidity;BME280_pressure;Samples;Min_cycle;Max_cycle;Signal;HPM_P1;HPM_P2
2023/01/26 00:00:45;;;;;;;14.17;12.30;;;;;;;1.75;100.00;97037.19;5113972;28;20214;-59
2023/01/26 00:03:12;;;;;;;15.33;12.93;;;;;;;1.73;100.00;97031.22;5114341;28;20216;-59
2023/01/26 00:05:38;;;;;;;15.07;12.80;;;;;;;1.76;100.00;97035.41;5112734;28;20213;-59
2023/01/26 00:08:05;;;;;;;14.40;11.63;;;;;;;1.76;100.00;97036.25;5113493;28;20200;-60
2023/01/26 00:10:31;;;;;;;13.57;11.73;;;;;;;1.74;100.00;97027.66;5116458;28;20527;-59
2023/01/26 00:12:58;;;;;;;13.87;11.83;;;;;;;1.71;100.00;97022.63;5117472;28;20232;-58
2023/01/26 00:15:26;;;;;;;13.33;11.77;;;;;;;1.70;100.00;97015.69;5116779;28;20655;-59
2023/01/26 00:17:52;;;;;;;14.10;12.60;;;;;;;1.74;100.00;97024.22;5117325;28;20205;-59
2023/01/26 00:20:18;;;;;;;14.77;12.20;;;;;;;1.70;100.00;97020.91;5116478;28;20200;-59
2023/01/26 00:22:45;;;;;;;13.27;11.70;;;;;;;1.66;100.00;97019.41;5116769;28;20204;-59
2023/01/26 00:25:11;;;;;;;14.33;11.87;;;;;;;1.66;100.00;97015.97;5114644;28;20287;-59
2023/01/26 00:27:38;;;;;;;14.60;12.10;;;;;;;1.63;100.00;97014.34;5114336;28;20219;-60
2023/01/26 00:30:05;;;;;;;14.80;12.43;;;;;;;1.66;100.00;97016.81;5113260;28;20614;-59
2023/01/26 00:32:34;;;;;;;13.33;11.83;;;;;;;1.72;100.00;97007.81;5113536;28;20220;-59
2023/01/26 00:35:01;;;;;;;14.50;12.57;;;;;;;1.74;100.00;97017.22;5112600;28;20198;-60
2023/01/26 00:37:27;;;;;;;15.30;12.37;;;;;;;1.65;100.00;97011.66;5113952;28;20204;-59
2023/01/26 00:39:54;;;;;;;14.80;12.27;;;;;;;1.72;100.00;97008.66;5113331;28;20215;-60
2023/01/26 00:42:21;;;;;;;16.13;13.63;;;;;;;1.66;100.00;97013.34;5113914;28;20205;-59
2023/01/26 00:44:48;;;;;;;15.23;12.13;;;;;;;1.67;100.00;97005.44;5113623;28;20208;-59
2023/01/26 00:47:14;;;;;;;13.97;12.10;;;;;;;1.66;100.00;97011.59;5114318;28;20207;-60
2023/01/26 00:49:42;;;;;;;13.77;12.33;;;;;;;1.68;100.00;97004.53;5114377;28;20640;-61
2023/01/26 00:52:09;;;;;;;14.07;12.57;;;;;;;1.62;100.00;97012.69;5122472;28;20239;-60
2023/01/26 00:54:35;;;;;;;14.83;13.17;;;;;;;1.64;100.00;97008.22;5123738;28;20208;-59
2023/01/26 00:57:02;;;;;;;13.87;12.37;;;;;;;1.63;100.00;97011.72;5125723;28;20205;-59
2023/01/26 00:59:31;;;;;;;15.73;13.03;;;;;;;1.67;100.00;97007.19;5122919;28;20624;-60
2023/01/26 01:01:58;;;;;;;14.13;12.07;;;;;;;1.63;100.00;97006.53;5113811;28;20672;-58
2023/01/26 01:04:24;;;;;;;13.83;12.13;;;;;;;1.62;100.00;97007.47;5113923;28;20212;-61
2023/01/26 01:06:52;;;;;;;13.53;11.87;;;;;;;1.63;100.00;97010.91;5113694;28;20196;-59
2023/01/26 01:09:19;;;;;;;14.10;12.60;;;;;;;1.61;100.00;97010.13;5113444;28;20208;-61
2023/01/26 01:11:45;;;;;;;15.63;13.03;;;;;;;1.61;100.00;97010.13;5112608;28;20200;-59
2023/01/26 01:14:12;;;;;;;14.83;13.23;;;;;;;1.59;100.00;97007.63;5112823;28;20212;-59
2023/01/26 01:16:39;;;;;;;13.60;12.20;;;;;;;1.59;100.00;97012.00;5112736;28;20201;-60
2023/01/26 01:19:06;;;;;;;14.07;12.47;;;;;;;1.62;100.00;97006.63;5112291;28;20322;-59
2023/01/26 01:21:33;;;;;;;13.90;12.50;;;;;;;1.60;100.00;97011.06;5112298;28;20220;-58
2023/01/26 01:24:00;;;;;;;14.10;12.53;;;;;;;1.57;100.00;97006.84;5112131;28;20530;-59
2023/01/26 01:26:27;;;;;;;14.77;12.57;;;;;;;1.53;100.00;97007.91;5112109;28;20208;-59
2023/01/26 01:28:54;;;;;;;16.13;12.80;;;;;;;1.55;100.00;97006.09;5113317;28;20228;-59
2023/01/26 01:31:22;;;;;;;15.40;13.37;;;;;;;1.53;100.00;97005.31;5115648;28;20205;-59
2023/01/26 01:33:48;;;;;;;14.97;12.33;;;;;;;1.51;100.00;96988.94;5116067;28;20224;-58
2023/01/26 01:36:16;;;;;;;15.60;12.90;;;;;;;1.52;100.00;96995.84;5115068;28;20545;-60
2023/01/26 01:38:44;;;;;;;15.43;13.40;;;;;;;1.52;100.00;96998.44;5112371;28;20208;-59
2023/01/26 01:41:13;;;;;;;13.47;12.07;;;;;;;1.49;100.00;96996.81;5111312;28;20204;-58
2023/01/26 01:43:39;;;;;;;14.30;12.70;;;;;;;1.44;100.00;96991.00;5112522;28;20291;-58
2023/01/26 01:46:07;;;;;;;14.00;12.20;;;;;;;1.46;100.00;96990.91;5111858;28;20215;-60
2023/01/26 01:48:37;;;;;;;15.40;12.33;;;;;;;1.46;100.00;96993.53;5112594;28;20210;-59
2023/01/26 01:51:06;;;;;;;13.63;12.23;;;;;;;1.48;100.00;96989.09;5111380;28;20213;-59
2023/01/26 01:53:34;;;;;;;15.27;12.77;;;;;;;1.45;100.00;96989.25;5111677;28;20913;-58
2023/01/26 01:56:03;;;;;;;14.23;12.30;;;;;;;1.45;100.00;96981.44;5111178;28;20197;-59
2023/01/26 01:58:32;;;;;;;14.30;12.50;;;;;;;1.47;100.00;96982.19;5111710;28;20203;-58
2023/01/26 02:00:58;;;;;;;15.53;13.00;;;;;;;1.45;100.00;96986.66;5111227;28;20240;-58
2023/01/26 02:03:25;;;;;;;14.50;11.80;;;;;;;1.44;100.00;96975.38;5111389;28;20200;-60
2023/01/26 02:05:55;;;;;;;13.13;11.73;;;;;;;1.46;100.00;96980.50;5110982;28;20199;-58
2023/01/26 02:08:26;;;;;;;13.50;11.97;;;;;;;1.42;100.00;96981.56;5112337;28;20238;-59
2023/01/26 02:10:55;;;;;;;16.07;12.53;;;;;;;1.46;100.00;96983.09;5111062;28;20200;-58
2023/01/26 02:13:24;;;;;;;15.53;12.33;;;;;;;1.48;100.00;96981.28;5111664;28;20220;-58
2023/01/26 02:15:52;;;;;;;15.23;13.10;;;;;;;1.49;100.00;96985.53;5111686;28;20210;-58
2023/01/26 02:18:19;;;;;;;15.03;13.43;;;;;;;1.46;100.00;96970.06;5112141;28;20296;-58
2023/01/26 02:20:47;;;;;;;16.47;13.73;;;;;;;1.40;100.00;96968.63;5111965;28;20197;-58
2023/01/26 02:23:26;;;;;;;15.60;13.70;;;;;;;1.42;100.00;96963.34;5111330;28;20212;-60
2023/01/26 02:26:04;;;;;;;15.23;12.40;;;;;;;1.43;100.00;96962.41;5111090;28;20203;-58
2023/01/26 02:28:31;;;;;;;14.90;12.97;;;;;;;1.43;100.00;96965.88;5111811;28;20212;-59
2023/01/26 02:30:58;;;;;;;14.87;12.90;;;;;;;1.45;100.00;96963.19;5113123;28;20227;-58
2023/01/26 02:33:27;;;;;;;16.00;13.17;;;;;;;1.43;100.00;96959.81;5112787;28;20227;-59
2023/01/26 02:35:53;;;;;;;16.23;12.87;;;;;;;1.41;100.00;96952.09;5112376;28;20204;-59
2023/01/26 02:38:22;;;;;;;15.23;12.43;;;;;;;1.42;100.00;96953.75;5112361;28;20197;-59
2023/01/26 02:40:51;;;;;;;15.57;12.63;;;;;;;1.42;100.00;96948.53;5111471;28;20196;-59
2023/01/26 02:43:18;;;;;;;16.17;13.17;;;;;;;1.43;100.00;96944.19;5112080;28;20205;-59
2023/01/26 02:45:45;;;;;;;16.63;12.57;;;;;;;1.44;100.00;96948.47;5112698;28;20197;-59
2023/01/26 02:48:11;;;;;;;16.80;13.70;;;;;;;1.42;100.00;96940.72;5112023;28;20212;-59
2023/01/26 02:50:36;;;;;;;16.40;13.87;;;;;;;1.41;100.00;96939.06;5110891;28;20547;-59
2023/01/26 02:53:04;;;;;;;15.97;14.10;;;;;;;1.47;100.00;96940.50;5110618;28;20220;-59
2023/01/26 02:55:29;;;;;;;17.47;13.60;;;;;;;1.46;100.00;96941.41;5111003;28;20211;-59
2023/01/26 02:57:57;;;;;;;15.37;13.20;;;;;;;1.43;100.00;96944.19;5111511;28;20216;-59
2023/01/26 03:00:27;;;;;;;15.87;13.27;;;;;;;1.43;100.00;96933.75;5110963;28;20220;-58
2023/01/26 03:02:55;;;;;;;16.87;14.27;;;;;;;1.44;100.00;96927.63;5111180;28;20239;-58
2023/01/26 03:05:22;;;;;;;16.30;13.57;;;;;;;1.47;100.00;96925.72;5109898;28;20636;-58
2023/01/26 03:07:48;;;;;;;15.67;13.37;;;;;;;1.50;100.00;96922.09;5111592;28;20204;-59
2023/01/26 03:10:17;;;;;;;15.77;14.07;;;;;;;1.49;100.00;96920.41;5110076;28;20212;-59
2023/01/26 03:12:44;;;;;;;16.10;13.73;;;;;;;1.45;100.00;96924.13;5110769;28;20312;-59
2023/01/26 03:29:06;;;;;;;17.33;14.23;;;;;;;1.48;100.00;96913.53;5114731;28;20412;-59
2023/01/26 03:31:32;;;;;;;17.10;14.83;;;;;;;1.47;100.00;96910.06;5113865;28;20200;-58
2023/01/26 03:34:00;;;;;;;17.07;14.63;;;;;;;1.50;100.00;96914.28;5113871;28;20224;-59
2023/01/26 03:36:27;;;;;;;16.73;14.27;;;;;;;1.43;100.00;96912.91;5114016;28;20223;-58
2023/01/26 03:38:53;;;;;;;17.53;14.93;;;;;;;1.46;100.00;96917.97;5114948;28;20208;-59
2023/01/26 03:57:45;;;;;;;18.67;14.47;;;;;;;1.35;100.00;96892.47;5114247;28;20257;-58
2023/01/26 04:00:13;;;;;;;15.77;13.67;;;;;;;1.38;100.00;96899.31;5113903;28;20204;-59
2023/01/26 04:08:25;;;;;;;17.93;14.73;;;;;;;1.40;100.00;96889.63;5121698;28;20207;-60
2023/01/26 04:10:53;;;;;;;17.97;15.00;;;;;;;1.40;100.00;96881.81;5126190;28;20272;-59
2023/01/26 04:21:34;;;;;;;16.83;14.47;;;;;;;1.29;100.00;96873.72;5114476;28;20541;-58
2023/01/26 04:24:01;;;;;;;18.27;15.40;;;;;;;1.29;100.00;96881.53;5113409;28;20201;-60
2023/01/26 04:26:33;;;;;;;18.93;15.23;;;;;;;1.25;100.00;96877.41;5113312;28;20636;-59
2023/01/26 04:29:01;;;;;;;20.10;15.73;;;;;;;1.26;100.00;96879.09;5113662;28;20208;-59
2023/01/26 04:31:27;;;;;;;18.47;15.80;;;;;;;1.30;100.00;96872.81;5112425;28;20237;-59
2023/01/26 04:33:54;;;;;;;18.70;15.93;;;;;;;1.26;100.00;96872.13;5113150;28;20243;-59
2023/01/26 04:36:20;;;;;;;18.33;15.47;;;;;;;1.25;100.00;96869.59;5112793;28;20197;-59
2023/01/26 04:38:49;;;;;;;19.80;15.70;;;;;;;1.24;100.00;96873.94;5113659;28;20212;-58
2023/01/26 04:41:15;;;;;;;17.03;14.73;;;;;;;1.31;100.00;96872.72;5113472;28;20201;-59
2023/01/26 04:43:42;;;;;;;19.87;15.67;;;;;;;1.28;100.00;96872.88;5113021;28;20200;-60
2023/01/26 04:46:08;;;;;;;18.93;15.20;;;;;;;1.27;100.00;96860.78;5112667;28;20209;-59
2023/01/26 04:48:35;;;;;;;20.00;16.90;;;;;;;1.28;100.00;96866.81;5113193;28;20220;-59
2023/01/26 04:51:06;;;;;;;20.07;16.30;;;;;;;1.27;100.00;96855.59;5112521;28;20208;-59
2023/01/26 04:53:33;;;;;;;18.73;15.60;;;;;;;1.23;100.00;96855.81;5112749;28;20220;-60
2023/01/26 04:56:01;;;;;;;19.50;15.43;;;;;;;1.21;100.00;96858.50;5112516;28;20201;-58
2023/01/26 04:58:27;;;;;;;20.80;16.83;;;;;;;1.19;100.00;96854.28;5113374;28;20220;-59
2023/01/26 05:00:56;;;;;;;18.63;15.80;;;;;;;1.27;100.00;96855.59;5111801;28;20246;-59
2023/01/26 05:03:24;;;;;;;20.07;16.83;;;;;;;1.31;100.00;96856.25;5112239;28;20621;-58
2023/01/26 05:05:52;;;;;;;20.07;16.63;;;;;;;1.33;100.00;96855.25;5112686;28;20200;-58
2023/01/26 05:08:19;;;;;;;20.17;16.63;;;;;;;1.34;100.00;96850.88;5113191;28;20219;-59
2023/01/26 05:10:46;;;;;;;20.70;17.23;;;;;;;1.34;100.00;96846.50;5112414;28;20219;-58
2023/01/26 05:13:14;;;;;;;19.80;15.70;;;;;;;1.40;100.00;96853.16;5112735;28;20224;-60
2023/01/26 05:15:41;;;;;;;18.03;15.60;;;;;;;1.41;100.00;96842.66;5113070;28;20212;-59
2023/01/26 05:18:07;;;;;;;20.00;15.90;;;;;;;1.40;100.00;96842.72;5113200;28;20536;-59
2023/01/26 05:20:34;;;;;;;20.60;15.60;;;;;;;1.39;100.00;96839.28;5113929;28;20201;-59
2023/01/26 05:23:00;;;;;;;21.43;16.83;;;;;;;1.35;100.00;96837.75;5116909;28;20228;-59
2023/01/26 05:25:27;;;;;;;22.23;16.70;;;;;;;1.35;100.00;96832.53;5116708;28;20207;-60
2023/01/26 05:27:53;;;;;;;20.17;16.30;;;;;;;1.35;100.00;96831.69;5116440;28;20216;-60
2023/01/26 05:30:22;;;;;;;20.00;15.93;;;;;;;1.32;100.00;96824.91;5115875;28;20205;-59
2023/01/26 05:32:48;;;;;;;20.53;16.57;;;;;;;1.36;100.00;96836.00;5116217;28;20208;-59
2023/01/26 05:35:15;;;;;;;19.17;16.33;;;;;;;1.35;100.00;96821.28;5114819;28;20212;-60
2023/01/26 05:37:42;;;;;;;22.03;17.07;;;;;;;1.36;100.00;96828.19;5113061;28;20209;-58
2023/01/26 05:40:09;;;;;;;20.73;16.70;;;;;;;1.36;100.00;96822.97;5111112;28;20212;-59
2023/01/26 05:42:36;;;;;;;21.83;16.97;;;;;;;1.34;100.00;96832.66;5111198;28;20204;-59
2023/01/26 05:45:03;;;;;;;19.97;16.47;;;;;;;1.36;100.00;96830.78;5112389;28;20219;-59
2023/01/26 05:47:31;;;;;;;20.37;15.97;;;;;;;1.37;100.00;96828.09;5112025;28;20193;-59
2023/01/26 05:49:57;;;;;;;19.60;16.27;;;;;;;1.37;100.00;96832.47;5111959;28;20279;-59
2023/01/26 05:52:23;;;;;;;17.63;15.60;;;;;;;1.39;100.00;96833.22;5111829;28;20212;-59
2023/01/26 05:54:50;;;;;;;20.80;16.20;;;;;;;1.38;100.00;96840.19;5111014;28;20327;-59
2023/01/26 05:57:16;;;;;;;19.73;16.43;;;;;;;1.36;100.00;96836.00;5111770;28;20204;-59
2023/01/26 05:59:43;;;;;;;19.77;15.83;;;;;;;1.34;100.00;96840.47;5111752;28;20596;-57
2023/01/26 06:02:11;;;;;;;21.40;16.27;;;;;;;1.34;100.00;96835.25;5110549;28;20257;-58
2023/01/26 06:04:39;;;;;;;21.33;17.63;;;;;;;1.37;100.00;96835.06;5112099;28;20192;-58
2023/01/26 06:07:05;;;;;;;21.93;17.13;;;;;;;1.35;100.00;96839.50;5111076;28;20645;-58
2023/01/26 06:09:32;;;;;;;20.43;16.67;;;;;;;1.35;100.00;96834.31;5124685;28;20201;-59
2023/01/26 06:11:58;;;;;;;20.10;16.73;;;;;;;1.36;100.00;96841.22;5134339;28;20204;-60
2023/01/26 06:14:25;;;;;;;20.70;16.57;;;;;;;1.37;100.00;96846.34;5137125;28;20224;-59
2023/01/26 06:16:53;;;;;;;20.53;16.47;;;;;;;1.39;100.00;96843.66;5132799;28;20185;-59
2023/01/26 06:19:20;;;;;;;20.23;16.67;;;;;;;1.40;100.00;96842.72;5112296;28;20640;-59
2023/01/26 06:21:48;;;;;;;22.33;17.30;;;;;;;1.38;100.00;96842.78;5111429;28;20213;-59
2023/01/26 06:24:14;;;;;;;20.87;17.33;;;;;;;1.39;100.00;96848.84;5092589;28;20276;-59
2023/01/26 06:26:41;;;;;;;22.83;17.03;;;;;;;1.41;100.00;96845.25;5111156;28;20216;-60
2023/01/26 06:29:08;;;;;;;20.60;17.10;;;;;;;1.44;100.00;96844.25;5111423;28;20570;-59
2023/01/26 06:31:36;;;;;;;20.33;16.70;;;;;;;1.49;100.00;96847.44;5111934;28;20197;-59
2023/01/26 06:34:04;;;;;;;21.97;17.47;;;;;;;1.47;100.00;96846.69;5110486;28;20239;-58
2023/01/26 06:36:31;;;;;;;23.30;17.93;;;;;;;1.44;100.00;96844.25;5111210;28;20219;-58
2023/01/26 06:39:00;;;;;;;22.83;17.27;;;;;;;1.47;100.00;96841.47;5111152;28;20307;-60
2023/01/26 06:41:27;;;;;;;20.67;17.67;;;;;;;1.48;100.00;96845.78;5112460;28;20208;-62
2023/01/26 06:43:53;;;;;;;20.80;16.37;;;;;;;1.47;100.00;96841.47;5112885;28;20204;-59
2023/01/26 06:46:20;;;;;;;22.20;17.33;;;;;;;1.44;100.00;96831.22;5114092;28;20208;-58
2023/01/26 06:48:46;;;;;;;23.87;18.13;;;;;;;1.46;100.00;96832.81;5114931;28;20196;-59
2023/01/26 06:51:51;;;;;;;20.67;16.93;;;;;;;1.49;100.00;96830.03;5112919;28;20230;-59
2023/01/26 06:54:19;;;;;;;21.60;16.57;;;;;;;1.44;100.00;96836.44;5110455;28;20242;-59
2023/01/26 06:56:46;;;;;;;20.87;16.70;;;;;;;1.44;100.00;96831.22;5116728;28;20207;-58
2023/01/26 06:59:13;;;;;;;20.67;16.43;;;;;;;1.40;100.00;96842.72;5116095;28;20636;-58
2023/01/26 07:01:43;;;;;;;18.87;15.77;;;;;;;1.41;100.00;96847.03;5117321;28;20835;-59
2023/01/26 07:04:09;;;;;;;19.63;14.77;;;;;;;1.44;100.00;96839.88;5120640;28;20260;-59
2023/01/26 07:06:36;;;;;;;20.23;15.73;;;;;;;1.41;100.00;96844.41;5119628;28;20215;-59
2023/01/26 07:09:04;;;;;;;22.73;16.23;;;;;;;1.39;100.00;96839.28;5114661;28;20208;-60
2023/01/26 07:11:32;;;;;;;21.27;15.53;;;;;;;1.40;100.00;96842.72;5115770;28;20210;-58
2023/01/26 07:13:59;;;;;;;19.77;15.67;;;;;;;1.39;100.00;96838.44;5114313;28;20628;-59
2023/01/26 07:16:25;;;;;;;22.00;15.40;;;;;;;1.41;100.00;96831.38;5115099;28;20195;-60
2023/01/26 07:18:53;;;;;;;19.43;15.13;;;;;;;1.42;100.00;96830.44;5114615;28;20637;-59
2023/01/26 07:21:21;;;;;;;21.43;15.83;;;;;;;1.41;100.00;96834.84;5116561;28;20709;-59
2023/01/26 07:23:48;;;;;;;19.33;15.67;;;;;;;1.44;100.00;96831.22;5116033;28;20212;-59
2023/01/26 07:26:15;;;;;;;20.00;15.63;;;;;;;1.45;100.00;96838.13;5116934;28;20204;-59
2023/01/26 07:28:43;;;;;;;20.07;15.17;;;;;;;1.41;100.00;96827.03;5115481;28;20215;-61
2023/01/26 07:31:11;;;;;;;18.30;14.57;;;;;;;1.45;100.00;96833.72;5115801;28;20221;-60
2023/01/26 07:33:37;;;;;;;19.83;14.90;;;;;;;1.44;100.00;96837.28;5114999;28;20219;-59
2023/01/26 07:36:04;;;;;;;19.83;15.60;;;;;;;1.43;100.00;96834.75;5115232;28;20226;-58
2023/01/26 07:38:32;;;;;;;18.80;15.07;;;;;;;1.40;99.48;96840.13;5116173;28;20520;-60
2023/01/26 07:40:58;;;;;;;19.27;14.83;;;;;;;1.40;100.00;96837.50;5114807;28;20223;-59
2023/01/26 07:43:25;;;;;;;23.10;15.30;;;;;;;1.38;100.00;96831.56;5113777;28;20215;-60
2023/01/26 07:45:54;;;;;;;20.07;15.57;;;;;;;1.33;100.00;96831.78;5113355;28;20215;-59
2023/01/26 07:48:22;;;;;;;18.53;14.77;;;;;;;1.37;100.00;96829.88;5114429;28;20200;-59
2023/01/26 07:50:48;;;;;;;21.20;15.20;;;;;;;1.39;100.00;96831.47;5114285;28;20204;-59
2023/01/26 07:53:18;;;;;;;20.20;14.40;;;;;;;1.45;100.00;96831.13;5114856;28;20216;-60
2023/01/26 07:55:44;;;;;;;20.13;14.83;;;;;;;1.42;100.00;96830.44;5113120;28;20239;-59
2023/01/26 07:58:11;;;;;;;19.50;14.23;;;;;;;1.42;100.00;96825.22;5114112;28;20536;-60
2023/01/26 08:00:38;;;;;;;22.97;14.63;;;;;;;1.40;100.00;96824.50;5113319;28;21355;-59
2023/01/26 08:03:06;;;;;;;19.13;14.67;;;;;;;1.45;100.00;96822.50;5114220;28;20205;-59
2023/01/26 08:05:34;;;;;;;20.40;14.57;;;;;;;1.48;100.00;96819.72;5113537;28;20201;-59
2023/01/26 08:08:01;;;;;;;20.43;15.17;;;;;;;1.45;100.00;96823.31;5115564;28;20209;-59
2023/01/26 08:10:30;;;;;;;21.77;14.93;;;;;;;1.47;100.00;96825.84;5114771;28;20215;-58
2023/01/26 08:12:58;;;;;;;18.70;13.87;;;;;;;1.41;100.00;96832.25;5114204;28;20236;-59
2023/01/26 08:15:25;;;;;;;23.27;14.27;;;;;;;1.43;100.00;96826.94;5113547;28;20228;-59
2023/01/26 08:17:51;;;;;;;28.83;15.33;;;;;;;1.39;100.00;96834.06;5113570;28;20196;-59
2023/01/26 08:20:19;;;;;;;32.43;15.77;;;;;;;1.43;100.00;96838.19;5112968;28;20207;-58
2023/01/26 08:22:45;;;;;;;30.87;15.97;;;;;;;1.42;100.00;96838.25;5114132;28;20265;-58
2023/01/26 08:25:12;;;;;;;21.17;14.73;;;;;;;1.33;100.00;96834.41;5112982;28;20201;-59
2023/01/26 08:27:38;;;;;;;18.03;13.73;;;;;;;1.32;100.00;96839.69;5113840;28;20207;-59
2023/01/26 08:30:06;;;;;;;19.53;13.47;;;;;;;1.34;100.00;96832.66;5112966;28;20526;-59
2023/01/26 08:32:33;;;;;;;18.70;13.40;;;;;;;1.28;100.00;96830.34;5112186;28;20236;-59
2023/01/26 08:34:59;;;;;;;20.13;14.40;;;;;;;1.26;100.00;96837.41;5112194;28;20538;-59
2023/01/26 08:37:27;;;;;;;20.13;14.73;;;;;;;1.33;100.00;96834.41;5113836;28;20522;-58
2023/01/26 08:39:53;;;;;;;25.20;15.27;;;;;;;1.32;100.00;96839.69;5112836;28;20211;-59
2023/01/26 08:42:20;;;;;;;20.40;14.63;;;;;;;1.23;100.00;96832.38;5111406;28;20211;-58
2023/01/26 08:44:46;;;;;;;21.00;15.47;;;;;;;1.32;100.00;96829.25;5111481;28;20216;-59
2023/01/26 08:47:13;;;;;;;22.17;15.23;;;;;;;1.35;100.00;96837.75;5113753;28;20209;-59
2023/01/26 08:49:39;;;;;;;22.33;15.03;;;;;;;1.36;100.00;96833.38;5111211;28;20219;-58
2023/01/26 08:52:06;;;;;;;20.47;14.17;;;;;;;1.42;100.00;96843.47;5112918;28;20203;-59
2023/01/26 08:54:34;;;;;;;20.10;15.50;;;;;;;1.44;100.00;96841.66;5112258;28;20235;-59
2023/01/26 08:57:01;;;;;;;27.60;16.33;;;;;;;1.48;100.00;96844.00;5111999;28;20219;-59
2023/01/26 08:59:27;;;;;;;27.07;15.83;;;;;;;1.40;99.77;96834.91;5112143;28;20204;-59
2023/01/26 09:01:54;;;;;;;24.67;14.73;;;;;;;1.43;99.87;96830.38;5111899;28;20231;-59
2023/01/26 09:04:21;;;;;;;27.00;16.07;;;;;;;1.39;100.00;96835.81;5110460;28;20252;-58
2023/01/26 09:06:48;;;;;;;25.73;15.47;;;;;;;1.40;100.00;96832.31;5113349;28;20646;-59
2023/01/26 09:09:14;;;;;;;24.07;15.17;;;;;;;1.39;99.33;96835.81;5112819;28;20287;-60
2023/01/26 09:11:42;;;;;;;29.47;15.00;;;;;;;1.34;99.68;96836.09;5113377;28;20215;-58
2023/01/26 09:14:08;;;;;;;36.10;17.00;;;;;;;1.34;99.61;96837.84;5112752;28;20208;-59
2023/01/26 09:16:35;;;;;;;46.40;18.40;;;;;;;1.39;100.00;96833.22;5120874;28;20210;-59
2023/01/26 09:19:02;;;;;;;29.00;15.50;;;;;;;1.35;99.31;96836.91;5132975;28;20180;-59
2023/01/26 09:21:28;;;;;;;30.00;17.00;;;;;;;1.40;99.31;96837.50;5134457;28;20217;-59
2023/01/26 09:23:55;;;;;;;30.80;15.53;;;;;;;1.36;98.60;96830.78;5136754;28;20200;-59
2023/01/26 09:26:22;;;;;;;28.33;15.93;;;;;;;1.37;98.72;96837.69;5131128;28;20202;-59
2023/01/26 09:28:51;;;;;;;25.13;14.90;;;;;;;1.43;98.67;96842.56;5115001;28;20208;-58
2023/01/26 09:31:18;;;;;;;23.27;13.83;;;;;;;1.43;98.79;96842.56;5112290;28;20200;-59
2023/01/26 09:33:44;;;;;;;21.23;14.57;;;;;;;1.45;98.09;96845.94;5116780;28;20202;-60
2023/01/26 09:36:12;;;;;;;24.60;14.23;;;;;;;1.41;98.23;96834.84;5114064;28;20228;-58
2023/01/26 09:38:38;;;;;;;19.60;14.20;;;;;;;1.41;98.07;96839.22;5115823;28;20227;-59
2023/01/26 09:41:07;;;;;;;19.13;14.03;;;;;;;1.50;97.47;96836.09;5119164;28;20200;-59
2023/01/26 09:43:37;;;;;;;18.77;14.17;;;;;;;1.47;97.38;96846.69;5116514;28;20200;-59
2023/01/26 09:46:15;;;;;;;19.97;13.43;;;;;;;1.44;96.32;96842.50;5113727;28;20192;-59
2023/01/26 09:48:49;;;;;;;20.43;12.90;;;;;;;1.45;96.38;96838.94;5113894;28;20204;-58
2023/01/26 09:51:19;;;;;;;27.70;15.30;;;;;;;1.47;95.99;96842.31;5113148;28;20235;-59
2023/01/26 09:53:48;;;;;;;20.80;14.03;;;;;;;1.46;96.02;96845.84;5111852;28;20300;-58
2023/01/26 09:56:18;;;;;;;25.13;15.63;;;;;;;1.47;96.29;96837.09;5112096;28;20227;-59
2023/01/26 09:58:47;;;;;;;29.93;15.50;;;;;;;1.44;95.97;96841.66;5113082;28;20208;-59
2023/01/26 10:01:22;;;;;;;29.33;14.33;;;;;;;1.49;96.79;96834.41;5131863;28;20255;-59
2023/01/26 10:03:54;;;;;;;23.73;14.63;;;;;;;1.52;96.19;96835.06;5135895;28;20268;-58
2023/01/26 10:06:25;;;;;;;18.47;13.23;;;;;;;1.62;96.29;96839.81;5136078;28;20228;-58
2023/01/26 10:08:52;;;;;;;37.93;16.63;;;;;;;1.57;95.74;96839.19;5135606;28;20187;-59
2023/01/26 10:11:23;;;;;;;22.00;14.63;;;;;;;1.58;95.96;96833.91;5135018;28;20199;-58
2023/01/26 10:13:54;;;;;;;22.83;14.03;;;;;;;1.63;94.88;96837.09;5137608;28;20204;-59
2023/01/26 10:16:24;;;;;;;21.03;13.57;;;;;;;1.56;93.91;96835.75;5137179;28;20258;-59
2023/01/26 10:18:54;;;;;;;22.37;14.03;;;;;;;1.53;94.55;96825.50;5135591;28;20253;-59
2023/01/26 10:21:23;;;;;;;19.93;13.90;;;;;;;1.56;94.72;96829.72;5133807;28;20248;-59
2023/01/26 10:23:50;;;;;;;21.70;14.27;;;;;;;1.63;95.71;96839.69;5136409;28;20193;-59
2023/01/26 10:26:19;;;;;;;20.53;14.43;;;;;;;1.67;95.27;96838.63;5135094;28;20190;-62
2023/01/26 10:28:46;;;;;;;20.40;14.17;;;;;;;1.75;95.26;96836.44;5136571;28;20225;-62
2023/01/26 10:31:16;;;;;;;18.33;13.87;;;;;;;1.76;94.89;96822.47;5136304;28;20242;-59
2023/01/26 10:33:50;;;;;;;21.40;14.03;;;;;;;1.75;93.64;96820.78;5135205;28;20186;-60
2023/01/26 10:36:16;;;;;;;19.17;14.33;;;;;;;1.72;93.96;96814.91;5132146;28;20219;-60
2023/01/26 10:38:46;;;;;;;18.93;13.03;;;;;;;1.71;93.35;96819.28;5115317;28;20207;-60
2023/01/26 10:41:24;;;;;;;18.53;13.37;;;;;;;1.69;93.70;96809.88;5114347;28;20210;-59
2023/01/26 10:43:53;;;;;;;21.63;13.50;;;;;;;1.63;93.09;96807.59;5115148;28;20210;-59
2023/01/26 10:46:31;;;;;;;21.83;14.13;;;;;;;1.68;93.55;96814.25;5113129;28;20193;-59
2023/01/26 10:49:00;;;;;;;19.63;13.27;;;;;;;1.76;93.43;96806.84;5111401;28;20201;-58
2023/01/26 10:51:30;;;;;;;17.83;13.20;;;;;;;1.76;93.76;96811.22;5111279;28;20216;-59
2023/01/26 10:54:17;;;;;;;16.43;12.87;;;;;;;1.75;93.30;96812.97;5110700;28;20209;-59
2023/01/26 10:56:45;;;;;;;17.33;13.17;;;;;;;1.76;93.64;96816.41;5111410;28;20232;-60
2023/01/26 10:59:15;;;;;;;20.53;14.20;;;;;;;1.76;92.95;96817.28;5111123;28;20261;-58
2023/01/26 11:01:55;;;;;;;18.00;13.43;;;;;;;1.76;94.73;96813.81;5113183;28;20228;-59
2023/01/26 11:04:24;;;;;;;22.07;14.03;;;;;;;1.72;93.43;96804.47;5114457;28;20625;-59
2023/01/26 11:06:51;;;;;;;17.20;13.47;;;;;;;1.77;93.25;96807.69;5110962;28;20640;-59
2023/01/26 11:09:19;;;;;;;21.00;13.23;;;;;;;1.78;92.65;96797.16;5109525;28;20212;-59
2023/01/26 11:11:59;;;;;;;21.53;14.23;;;;;;;1.71;92.23;96793.22;5110657;28;20216;-59
2023/01/26 11:14:26;;;;;;;18.60;13.30;;;;;;;1.66;91.57;96797.84;5110632;28;20299;-59
2023/01/26 11:16:59;;;;;;;20.43;13.77;;;;;;;1.71;92.37;96800.19;5111541;28;20216;-59
2023/01/26 11:19:43;;;;;;;16.63;12.80;;;;;;;1.71;92.54;96801.03;5113601;28;20204;-59
2023/01/26 11:22:12;;;;;;;19.27;13.60;;;;;;;1.75;92.98;96805.16;5115732;28;20639;-59
2023/01/26 11:24:45;;;;;;;15.87;12.73;;;;;;;1.81;92.97;96801.34;5113353;28;20207;-60
2023/01/26 11:27:31;;;;;;;17.23;12.57;;;;;;;1.82;92.60;96800.44;5113573;28;20212;-60
2023/01/26 11:30:11;;;;;;;19.70;13.00;;;;;;;1.63;91.78;96797.19;5116204;28;20180;-59
2023/01/26 11:32:46;;;;;;;17.67;13.00;;;;;;;1.67;91.86;96801.28;5135759;28;20181;-60
2023/01/26 11:35:22;;;;;;;16.47;12.10;;;;;;;1.75;92.26;96793.88;5138660;28;20199;-59
2023/01/26 11:37:55;;;;;;;18.70;12.37;;;;;;;1.78;92.04;96791.94;5138410;28;20363;-59
2023/01/26 11:40:27;;;;;;;18.33;12.50;;;;;;;1.80;90.13;96800.53;5116897;28;20614;-58
2023/01/26 11:43:19;;;;;;;17.37;12.47;;;;;;;1.69;89.75;96797.69;5115480;28;20209;-60
2023/01/26 11:46:16;;;;;;;15.90;12.03;;;;;;;1.73;90.41;96791.38;5115169;28;20200;-59
2023/01/26 11:48:51;;;;;;;15.43;11.80;;;;;;;1.68;89.43;96789.94;5114486;28;20208;-59
2023/01/26 11:51:25;;;;;;;15.10;11.90;;;;;;;1.71;89.86;96788.00;5113320;28;20576;-59
2023/01/26 11:54:03;;;;;;;15.60;11.80;;;;;;;1.69;89.45;96787.25;5114348;28;20218;-58
2023/01/26 11:56:38;;;;;;;17.13;12.30;;;;;;;1.62;89.84;96785.06;5114175;28;20265;-58
2023/01/26 11:59:10;;;;;;;15.20;11.57;;;;;;;1.43;90.70;96787.84;5114650;28;20211;-59
2023/01/26 12:01:40;;;;;;;16.43;12.70;;;;;;;1.57;90.58;96784.47;5114939;28;20254;-58
2023/01/26 12:04:11;;;;;;;17.90;13.03;;;;;;;1.65;90.81;96779.69;5114429;28;20204;-59
2023/01/26 12:06:42;;;;;;;18.33;12.47;;;;;;;1.63;90.77;96778.94;5114197;28;20201;-59
2023/01/26 12:09:17;;;;;;;18.60;13.30;;;;;;;1.56;90.58;96775.81;5114290;28;20200;-58